Time,TemperatureF,DewpointF,PressureIn,WindDirection,WindDirectionDegrees,WindSpeedMPH,WindSpeedGustMPH,Humidity,HourlyPrecipIn,Conditions,Clouds,dailyrainin,SoftwareType,DateUTC
2013-05-08 00:00:00,54.4,47.3,29.96,South,180,0.0,0.0,77,0.00,,,0.00,WUHU216HW,2013-05-08 04:00:00,
2013-05-08 00:30:00,54.4,47.3,29.96,SSE,158,0.0,0.0,77,0.00,,,0.00,WUHU216HW,2013-05-08 04:30:00,
2013-05-08 01:00:00,54.2,47.2,29.95,SSE,158,0.0,0.0,77,0.00,,,0.00,WUHU216HW,2013-05-08 05:00:00,
2013-05-08 01:30:00,54.0,47.4,29.95,SE,135,0.0,0.0,78,0.00,,,0.00,WUHU216HW,2013-05-08 05:30:00,
2013-05-08 02:00:00,53.8,47.2,29.95,SE,135,0.0,0.0,78,0.00,,,0.00,WUHU216HW,2013-05-08 06:00:00,
2013-05-08 02:30:00,53.8,47.2,29.95,SW,225,0.0,0.0,78,0.00,,,0.00,WUHU216HW,2013-05-08 06:30:00,
2013-05-08 02:59:00,54.0,47.4,29.95,South,180,0.0,0.0,78,0.00,,,0.00,WUHU216HW,2013-05-08 06:59:00,
2013-05-08 03:22:00,53.8,47.2,29.95,SE,135,0.0,0.0,78,0.00,,,0.00,WUHU216HW,2013-05-08 07:22:00,
2013-05-08 03:29:00,54.2,47.5,29.96,South,180,0.0,0.0,78,0.00,,,0.00,WUHU216HW,2013-05-08 07:29:00,
2013-05-08 03:59:00,54.0,47.7,29.95,SW,225,0.0,0.0,79,0.00,,,0.00,WUHU216HW,2013-05-08 07:59:00,
2013-05-08 04:29:00,54.0,47.4,29.96,SW,225,0.0,0.0,78,0.01,,,0.01,WUHU216HW,2013-05-08 08:29:00,
2013-05-08 04:59:00,54.2,47.8,29.97,SE,135,0.0,0.0,79,0.00,,,0.01,WUHU216HW,2013-05-08 08:59:00,
2013-05-08 05:29:00,53.8,47.5,29.97,SE,135,0.0,0.0,79,0.01,,,0.02,WUHU216HW,2013-05-08 09:29:00,
2013-05-08 05:59:00,54.2,48.2,29.98,SE,135,0.0,0.0,80,0.00,,,0.02,WUHU216HW,2013-05-08 09:59:00,
2013-05-08 06:29:00,55.1,49.0,29.99,SSW,203,0.0,0.0,80,0.00,,,0.02,WUHU216HW,2013-05-08 10:29:00,
2013-05-08 06:59:00,55.4,49.3,29.99,South,180,0.0,0.0,80,0.00,,,0.02,WUHU216HW,2013-05-08 10:59:00,
2013-05-08 07:00:00,55.4,49.3,29.99,South,180,0.0,0.0,80,0.00,,,0.02,WUHU216HW,2013-05-08 11:00:00,
2013-05-08 07:30:00,56.2,50.4,30.00,South,180,0.0,0.0,81,0.00,,,0.02,WUHU216HW,2013-05-08 11:30:00,
2013-05-08 08:00:00,56.9,50.8,30.01,South,180,0.0,0.0,80,0.00,,,0.02,WUHU216HW,2013-05-08 12:00:00,
2013-05-08 08:30:00,57.4,51.3,30.01,SSW,203,0.0,0.0,80,0.00,,,0.02,WUHU216HW,2013-05-08 12:30:00,
2013-05-08 09:00:00,59.0,52.9,30.02,ESE,113,0.0,0.0,80,0.00,,,0.02,WUHU216HW,2013-05-08 13:00:00,
2013-05-08 09:30:00,60.5,53.3,30.02,ENE,68,0.0,0.0,77,0.00,,,0.02,WUHU216HW,2013-05-08 13:30:00,
2013-05-08 10:00:00,62.5,53.3,30.02,NE,45,0.4,0.4,72,0.00,,,0.02,WUHU216HW,2013-05-08 14:00:00,
2013-05-08 10:30:00,64.4,54.1,30.02,WNW,293,1.4,1.4,69,0.00,,,0.02,WUHU216HW,2013-05-08 14:30:00,
2013-05-08 11:00:00,65.9,55.0,30.01,South,180,2.6,2.6,68,0.00,,,0.02,WUHU216HW,2013-05-08 15:00:00,
2013-05-08 11:30:00,66.6,54.0,30.00,SSE,158,0.8,0.8,64,0.00,,,0.02,WUHU216HW,2013-05-08 15:30:00,
2013-05-08 11:59:00,67.3,53.8,29.99,SW,225,2.2,2.2,62,0.00,,,0.02,WUHU216HW,2013-05-08 15:59:00,
2013-05-08 12:30:00,68.4,54.0,29.99,SSW,203,6.8,6.8,60,0.00,,,0.02,WUHU216HW,2013-05-08 16:30:00,
2013-05-08 13:00:00,70.2,55.3,29.98,SW,225,2.2,2.2,59,0.00,,,0.02,WUHU216HW,2013-05-08 17:00:00,
2013-05-08 13:30:00,70.0,53.1,29.97,West,270,3.6,3.6,55,0.00,,,0.02,WUHU216HW,2013-05-08 17:30:00,
2013-05-08 13:55:00,68.4,54.0,29.99,SSW,203,6.8,6.8,60,0.00,,,0.02,WUHU216HW,2013-05-08 17:55:00,
2013-05-08 14:00:00,70.6,53.1,29.96,NNW,338,0.4,0.4,54,0.00,,,0.02,WUHU216HW,2013-05-08 18:00:00,
2013-05-08 14:30:00,70.6,53.6,29.96,North,0,0.8,0.8,55,0.00,,,0.02,WUHU216HW,2013-05-08 18:30:00,
2013-05-08 14:59:00,71.1,54.1,29.95,South,180,5.4,5.4,55,0.00,,,0.02,WUHU216HW,2013-05-08 18:59:00,
2013-05-08 15:30:00,70.9,54.4,29.95,SSW,203,0.8,0.8,56,0.00,,,0.02,WUHU216HW,2013-05-08 19:30:00,
2013-05-08 15:59:00,70.4,54.5,29.95,SSW,203,1.8,1.8,57,0.00,,,0.02,WUHU216HW,2013-05-08 19:59:00,
2013-05-08 16:29:00,70.2,54.7,29.95,SSW,203,0.8,0.8,58,0.00,,,0.02,WUHU216HW,2013-05-08 20:29:00,
2013-05-08 16:59:00,70.2,55.3,29.95,WSW,248,0.8,0.8,59,0.00,,,0.02,WUHU216HW,2013-05-08 20:59:00,
2013-05-08 17:29:00,70.2,55.3,29.95,SW,225,0.8,0.8,59,0.00,,,0.02,WUHU216HW,2013-05-08 21:29:00,
2013-05-08 17:59:00,68.9,54.5,29.95,SSW,203,0.8,0.8,60,0.00,,,0.02,WUHU216HW,2013-05-08 21:59:00,
2013-05-08 18:30:00,67.7,55.0,29.97,WNW,293,0.0,0.0,64,0.00,,,0.02,WUHU216HW,2013-05-08 22:30:00,
2013-05-08 18:55:00,70.2,55.3,29.95,SW,225,0.8,0.8,59,0.00,,,0.02,WUHU216HW,2013-05-08 22:55:00,
2013-05-08 18:59:00,66.4,54.3,29.97,WSW,248,0.0,0.0,65,0.00,,,0.02,WUHU216HW,2013-05-08 22:59:00,
2013-05-08 19:25:00,68.9,54.5,29.95,SSW,203,0.8,0.8,60,0.00,,,0.02,WUHU216HW,2013-05-08 23:25:00,
2013-05-08 19:29:00,65.2,55.2,29.99,NNW,338,3.2,3.2,70,0.00,,,0.02,WUHU216HW,2013-05-08 23:29:00,
2013-05-08 19:59:00,64.1,53.7,30.00,West,270,2.2,2.2,69,0.00,,,0.02,WUHU216HW,2013-05-08 23:59:00,
2013-05-08 20:29:00,63.0,53.8,30.02,NW,315,2.2,2.2,72,0.00,,,0.02,WUHU216HW,2013-05-09 00:29:00,
2013-05-08 21:00:00,62.1,53.7,30.02,West,270,0.0,0.0,74,0.00,,,0.02,WUHU216HW,2013-05-09 01:00:00,
2013-05-08 21:30:00,61.0,53.1,30.02,West,270,0.4,0.4,75,0.00,,,0.06,WUHU216HW,2013-05-09 01:30:00,
2013-05-08 22:00:00,60.3,53.8,30.01,NW,315,0.0,0.0,79,0.00,,,0.06,WUHU216HW,2013-05-09 02:00:00,
2013-05-08 22:30:00,60.3,53.5,30.01,WNW,293,0.0,0.0,78,0.00,,,0.06,WUHU216HW,2013-05-09 02:30:00,
2013-05-08 23:00:00,60.3,53.5,30.01,SE,135,0.0,0.0,78,0.00,,,0.06,WUHU216HW,2013-05-09 03:00:00,
2013-05-08 23:30:00,60.3,53.5,30.02,SSE,158,0.0,0.0,78,0.00,,,0.06,WUHU216HW,2013-05-09 03:30:00,